createdAt,value
2023-02-11T00:00:00.927Z,164
2023-02-11T00:10:00.728Z,162
2023-02-11T00:20:00.821Z,131
2023-02-11T00:30:00.555Z,111
2023-02-11T00:40:00.556Z,110
2023-02-11T00:50:00.608Z,90
2023-02-11T01:00:00.588Z,115
2023-02-11T01:10:00.556Z,128
2023-02-11T01:20:00.564Z,106
2023-02-11T01:30:00.559Z,123
2023-02-11T01:40:00.561Z,95
2023-02-11T01:50:00.555Z,92
2023-02-11T02:00:00.782Z,91
2023-02-11T02:10:00.771Z,94
2023-02-11T02:20:00.781Z,114
2023-02-11T02:30:00.811Z,113
2023-02-11T02:40:00.733Z,104
2023-02-11T02:50:00.641Z,113
2023-02-11T03:00:00.566Z,129
2023-02-11T03:10:00.545Z,130
2023-02-11T03:20:00.681Z,118
2023-02-11T03:30:00.541Z,135
2023-02-11T03:40:00.584Z,168
2023-02-11T03:50:00.544Z,176
2023-02-11T04:00:00.552Z,168
2023-02-11T04:10:00.555Z,107
2023-02-11T04:20:00.555Z,100
2023-02-11T04:30:00.790Z,98
2023-02-11T04:40:00.866Z,122
2023-02-11T04:50:01.453Z,82
2023-02-11T05:00:00.929Z,72
2023-02-11T05:10:00.812Z,77
2023-02-11T05:20:00.752Z,128
2023-02-11T05:30:00.792Z,146
2023-02-11T05:40:01.023Z,90
2023-02-11T05:50:00.757Z,84
2023-02-11T06:00:00.537Z,109
2023-02-11T06:10:00.665Z,240
2023-02-11T06:20:00.641Z,111
2023-02-11T06:30:00.624Z,256
2023-02-11T06:40:00.559Z,237
2023-02-11T06:50:00.559Z,263
2023-02-11T07:00:00.556Z,273
2023-02-11T07:10:00.577Z,405
2023-02-11T07:20:00.542Z,390
2023-02-11T07:30:00.562Z,379
2023-02-11T07:40:00.696Z,372
2023-02-11T07:50:00.800Z,387
2023-02-11T08:00:00.809Z,389
2023-02-11T08:10:00.817Z,390
2023-02-11T08:20:00.774Z,407
2023-02-11T08:30:00.775Z,384
2023-02-11T08:40:00.895Z,359
2023-02-11T09:00:00.566Z,83
2023-02-11T09:10:00.551Z,79
2023-02-11T09:20:00.563Z,99
2023-02-11T09:30:00.724Z,96
2023-02-11T09:40:01.774Z,138
2023-02-11T09:50:00.793Z,21
2023-02-11T10:00:00.921Z,25
2023-02-11T10:10:00.829Z,31
2023-02-11T10:20:00.849Z,30
2023-02-11T10:30:00.633Z,34
2023-02-11T10:40:00.752Z,25
2023-02-11T10:50:00.560Z,13
2023-02-11T11:00:00.558Z,12
2023-02-11T11:10:00.595Z,12
2023-02-11T11:20:00.555Z,11
2023-02-11T11:30:00.580Z,9
2023-02-11T11:40:00.551Z,10
2023-02-11T11:50:00.546Z,9
2023-02-11T12:00:01.144Z,11
2023-02-11T12:10:00.866Z,11
2023-02-11T12:20:01.032Z,16
2023-02-11T12:30:01.418Z,16
2023-02-11T12:40:01.147Z,17
2023-02-11T12:50:00.578Z,14
2023-02-11T13:00:00.608Z,17
2023-02-11T13:10:00.555Z,17
2023-02-11T13:20:00.554Z,10
2023-02-11T13:30:03.795Z,10
2023-02-11T13:40:00.572Z,9
2023-02-11T13:50:00.563Z,7
2023-02-11T14:00:00.612Z,9
2023-02-11T14:10:00.541Z,44
2023-02-11T14:20:00.785Z,15
2023-02-11T14:30:00.981Z,12
2023-02-11T14:40:00.830Z,11
2023-02-11T14:50:00.746Z,13
2023-02-11T15:00:01.377Z,16
2023-02-11T15:10:00.740Z,18
2023-02-11T15:20:00.848Z,20
2023-02-11T15:30:00.581Z,20
2023-02-11T15:40:00.570Z,27
2023-02-11T15:50:00.611Z,34
2023-02-11T16:00:00.554Z,34
2023-02-11T16:10:00.583Z,37
2023-02-11T16:20:00.563Z,215
2023-02-11T16:30:00.590Z,322
2023-02-11T16:40:00.542Z,378
2023-02-11T16:50:00.601Z,315
2023-02-11T17:00:01.013Z,181
2023-02-11T17:10:00.866Z,80
2023-02-11T17:20:00.895Z,66
2023-02-11T17:30:00.835Z,56
2023-02-11T17:40:00.843Z,50
2023-02-11T17:50:00.814Z,58
2023-02-11T18:00:00.993Z,49
2023-02-11T18:10:00.791Z,45
2023-02-11T18:20:00.587Z,46
2023-02-11T18:30:00.612Z,47
2023-02-11T18:40:01.200Z,47
2023-02-11T18:50:00.545Z,55
2023-02-11T19:00:00.746Z,61
2023-02-11T19:10:00.820Z,66
2023-02-11T19:20:00.799Z,192
2023-02-11T19:30:00.740Z,152
2023-02-11T19:40:00.878Z,103
2023-02-11T19:50:00.845Z,89
2023-02-11T20:00:01.483Z,71
2023-02-11T20:10:00.608Z,75
2023-02-11T20:20:00.572Z,71
2023-02-11T20:30:00.549Z,74
2023-02-11T20:40:00.632Z,87
2023-02-11T20:50:00.582Z,81
2023-02-11T21:00:00.545Z,65
2023-02-11T21:10:00.559Z,63
2023-02-11T21:20:00.553Z,62
2023-02-11T21:30:00.735Z,62
2023-02-11T21:40:00.729Z,64
2023-02-11T21:50:00.850Z,71
2023-02-11T22:00:00.955Z,71
2023-02-11T22:10:00.781Z,71
2023-02-11T22:20:00.614Z,65
2023-02-11T22:30:00.616Z,65
2023-02-11T22:40:00.992Z,65
2023-02-11T22:50:00.550Z,64
2023-02-11T23:00:00.568Z,68
2023-02-11T23:10:00.550Z,68
2023-02-11T23:20:00.546Z,68
2023-02-11T23:30:00.557Z,69
2023-02-11T23:40:00.546Z,68
2023-02-11T23:50:00.622Z,66
